createdAt,value
2019-06-20T00:01:50.180Z,27.62
2019-06-20T00:04:23.108Z,28.17
2019-06-20T00:06:56.062Z,28.52
2019-06-20T00:09:28.860Z,30.50
2019-06-20T00:12:01.634Z,29.07
2019-06-20T00:14:34.824Z,30.60
2019-06-20T00:17:07.640Z,29.87
2019-06-20T00:19:40.596Z,29.63
2019-06-20T00:22:13.472Z,29.87
2019-06-20T00:24:46.590Z,30.92
2019-06-20T00:27:19.654Z,33.23
2019-06-20T00:29:52.662Z,36.37
2019-06-20T00:32:25.617Z,38.02
2019-06-20T00:34:58.523Z,37.05
2019-06-20T00:37:31.526Z,36.25
2019-06-20T00:40:05.826Z,36.85
2019-06-20T00:42:38.627Z,35.17
2019-06-20T00:45:12.136Z,34.25
2019-06-20T00:47:45.023Z,33.33
2019-06-20T00:50:17.894Z,34.10
2019-06-20T00:52:50.633Z,32.78
2019-06-20T00:55:23.758Z,34.20
2019-06-20T00:57:56.610Z,34.20
2019-06-20T01:00:29.638Z,32.50
2019-06-20T01:03:02.488Z,31.62
2019-06-20T01:05:35.430Z,32.50
2019-06-20T01:08:08.420Z,31.65
2019-06-20T01:10:41.506Z,31.23
2019-06-20T01:13:14.466Z,32.67
2019-06-20T01:15:47.466Z,31.80
2019-06-20T01:18:20.258Z,32.20
2019-06-20T01:20:53.247Z,35.90
2019-06-20T01:23:26.193Z,34.98
2019-06-20T01:25:59.221Z,34.03
2019-06-20T01:28:32.232Z,33.25
2019-06-20T01:31:05.164Z,33.05
2019-06-20T01:33:38.171Z,31.48
2019-06-20T01:36:11.358Z,32.33
2019-06-20T01:38:44.385Z,30.87
2019-06-20T01:41:17.372Z,30.75
2019-06-20T01:43:51.212Z,30.05
2019-06-20T01:46:24.242Z,33.92
2019-06-20T01:48:57.240Z,31.57
2019-06-20T01:51:30.564Z,31.65
2019-06-20T01:54:03.552Z,29.75
2019-06-20T01:56:36.454Z,30.70
2019-06-20T01:59:09.419Z,29.07
2019-06-20T02:01:42.404Z,29.85
2019-06-20T02:04:15.371Z,30.20
2019-06-20T02:06:48.655Z,28.75
2019-06-20T02:09:21.506Z,30.17
2019-06-20T02:11:54.332Z,29.57
2019-06-20T02:14:27.512Z,31.25
2019-06-20T02:17:00.583Z,31.87
2019-06-20T02:19:33.480Z,32.73
2019-06-20T02:22:06.391Z,31.60
2019-06-20T02:24:39.245Z,31.07
2019-06-20T02:27:13.619Z,30.10
2019-06-20T02:29:46.682Z,33.92
2019-06-20T02:32:19.548Z,34.47
2019-06-20T02:34:52.483Z,32.13
2019-06-20T02:37:25.354Z,32.03
2019-06-20T02:39:58.244Z,32.42
2019-06-20T02:42:31.209Z,33.13
2019-06-20T02:45:05.095Z,32.45
2019-06-20T02:47:38.143Z,33.83
2019-06-20T02:50:11.240Z,33.00
2019-06-20T02:52:44.287Z,30.87
2019-06-20T02:55:17.420Z,30.52
2019-06-20T02:57:50.284Z,30.67
2019-06-20T03:00:27.658Z,29.25
2019-06-20T03:03:00.562Z,30.45
2019-06-20T03:05:33.707Z,30.97
2019-06-20T03:08:06.624Z,30.20
2019-06-20T03:10:39.847Z,29.20
2019-06-20T03:13:12.814Z,29.60
2019-06-20T03:15:45.748Z,28.52
2019-06-20T03:18:18.688Z,28.55
2019-06-20T03:20:51.583Z,29.75
2019-06-20T03:23:24.354Z,28.77
2019-06-20T03:25:57.352Z,28.87
2019-06-20T03:28:30.470Z,27.25
2019-06-20T03:31:03.343Z,27.10
2019-06-20T03:33:36.302Z,26.93
2019-06-20T03:36:09.247Z,26.87
2019-06-20T03:38:42.172Z,26.93
2019-06-20T03:41:15.084Z,25.68
2019-06-20T03:43:47.858Z,24.15
2019-06-20T03:46:20.755Z,24.77
2019-06-20T03:48:53.634Z,24.05
2019-06-20T03:51:26.702Z,23.60
2019-06-20T03:53:59.846Z,24.07
2019-06-20T03:56:32.929Z,22.48
2019-06-20T03:59:05.808Z,22.97
2019-06-20T04:01:38.742Z,24.47
2019-06-20T04:04:11.698Z,22.45
2019-06-20T04:06:44.637Z,22.67
2019-06-20T04:09:17.448Z,23.27
2019-06-20T04:11:50.455Z,22.20
2019-06-20T04:14:23.384Z,22.75
2019-06-20T04:16:56.504Z,23.50
2019-06-20T04:19:29.383Z,22.87
2019-06-20T04:22:02.618Z,22.17
2019-06-20T04:24:35.562Z,22.37
2019-06-20T04:27:08.498Z,21.87
2019-06-20T04:29:41.351Z,22.07
2019-06-20T04:32:14.314Z,21.15
2019-06-20T04:34:47.122Z,21.17
2019-06-20T04:37:19.997Z,19.77
2019-06-20T04:39:52.868Z,20.55
2019-06-20T04:42:25.818Z,19.15
2019-06-20T04:45:00.278Z,19.93
2019-06-20T04:47:33.272Z,17.60
2019-06-20T04:50:06.210Z,18.40
2019-06-20T04:52:39.157Z,16.83
2019-06-20T04:55:12.029Z,17.40
2019-06-20T04:57:45.013Z,17.07
2019-06-20T05:00:18.063Z,17.02
2019-06-20T05:02:51.002Z,16.37
2019-06-20T05:05:24.042Z,17.57
2019-06-20T05:07:57.093Z,17.80
2019-06-20T05:10:29.919Z,17.47
2019-06-20T05:13:02.735Z,17.13
2019-06-20T05:18:07.891Z,17.05
2019-06-20T05:20:41.763Z,17.90
2019-06-20T05:23:15.795Z,16.75
2019-06-20T05:25:49.669Z,16.20
2019-06-20T05:28:23.728Z,16.45
2019-06-20T05:30:57.616Z,16.90
2019-06-20T05:33:31.772Z,16.60
2019-06-20T05:36:05.847Z,16.30
2019-06-20T05:38:39.874Z,14.85
2019-06-20T05:41:13.765Z,16.42
2019-06-20T05:43:47.793Z,15.60
2019-06-20T05:46:21.698Z,15.03
2019-06-20T05:48:55.635Z,15.48
2019-06-20T05:51:29.630Z,14.70
2019-06-20T05:54:04.479Z,14.40
2019-06-20T05:56:38.485Z,14.75
2019-06-20T05:59:12.726Z,14.78
2019-06-20T06:01:47.002Z,14.80
2019-06-20T06:04:21.393Z,14.07
2019-06-20T06:06:55.211Z,14.28
2019-06-20T06:09:29.244Z,14.90
2019-06-20T06:12:03.151Z,14.23
2019-06-20T06:14:37.195Z,14.20
2019-06-20T06:17:11.191Z,14.40
2019-06-20T06:19:45.170Z,14.83
2019-06-20T06:22:19.112Z,14.78
2019-06-20T06:24:53.432Z,15.08
2019-06-20T06:27:27.379Z,14.80
2019-06-20T06:30:01.638Z,14.90
2019-06-20T06:32:40.050Z,14.53
2019-06-20T06:35:12.062Z,14.68
2019-06-20T06:37:46.105Z,14.07
2019-06-20T06:40:21.767Z,14.63
2019-06-20T06:42:55.756Z,14.60
2019-06-20T06:45:29.825Z,12.95
2019-06-20T06:48:03.883Z,13.55
2019-06-20T06:50:38.127Z,12.33
2019-06-20T06:53:12.049Z,13.18
2019-06-20T06:55:45.939Z,12.53
2019-06-20T06:58:19.892Z,12.88
2019-06-20T07:00:53.917Z,13.83
2019-06-20T07:03:27.911Z,13.03
2019-06-20T07:06:02.021Z,13.35
2019-06-20T07:08:36.159Z,13.05
2019-06-20T07:11:10.156Z,13.30
2019-06-20T07:13:44.102Z,12.63
2019-06-20T07:16:18.203Z,12.68
2019-06-20T07:18:53.351Z,12.50
2019-06-20T07:21:27.597Z,11.60
2019-06-20T07:24:01.624Z,12.00
2019-06-20T07:26:36.233Z,12.07
2019-06-20T07:29:10.422Z,11.33
2019-06-20T07:31:44.875Z,11.43
2019-06-20T07:34:19.012Z,11.25
2019-06-20T07:36:53.156Z,10.98
2019-06-20T07:39:28.299Z,11.50
2019-06-20T07:42:02.439Z,11.12
2019-06-20T07:44:36.462Z,10.82
2019-06-20T07:47:17.716Z,10.78
2019-06-20T07:49:46.768Z,10.68
2019-06-20T07:52:20.873Z,10.60
2019-06-20T07:54:54.956Z,10.48
2019-06-20T07:57:29.005Z,10.68
2019-06-20T08:00:03.385Z,10.32
2019-06-20T08:02:37.411Z,10.05
2019-06-20T08:05:11.806Z,10.20
2019-06-20T08:07:45.640Z,9.55
2019-06-20T08:10:22.199Z,9.80
2019-06-20T08:12:56.095Z,9.13
2019-06-20T08:15:30.154Z,9.33
2019-06-20T08:18:04.108Z,8.30
2019-06-20T08:20:38.780Z,8.18
2019-06-20T08:23:12.584Z,9.15
2019-06-20T08:25:47.069Z,8.93
2019-06-20T08:28:20.972Z,8.78
2019-06-20T08:30:56.069Z,9.45
2019-06-20T08:33:30.364Z,8.98
2019-06-20T08:36:04.618Z,8.65
2019-06-20T08:38:38.549Z,8.90
2019-06-20T08:41:12.571Z,7.42
2019-06-20T08:43:46.341Z,7.55
2019-06-20T08:46:20.230Z,7.17
2019-06-20T08:48:54.930Z,8.18
2019-06-20T08:51:29.669Z,10.93
2019-06-20T08:54:03.563Z,11.10
2019-06-20T08:56:37.425Z,10.30
2019-06-20T08:59:23.907Z,10.40
2019-06-20T09:01:47.049Z,10.82
2019-06-20T09:04:22.546Z,10.10
2019-06-20T09:06:57.570Z,10.13
2019-06-20T09:09:32.280Z,9.65
2019-06-20T09:12:06.086Z,9.53
2019-06-20T09:14:39.941Z,9.00
2019-06-20T09:17:13.841Z,9.55
2019-06-20T09:19:47.867Z,7.75
2019-06-20T09:22:21.652Z,7.28
2019-06-20T09:24:56.823Z,7.80
2019-06-20T09:27:30.718Z,7.58
2019-06-20T09:30:09.770Z,7.53
2019-06-20T09:32:43.580Z,7.60
2019-06-20T09:35:17.612Z,9.93
2019-06-20T09:37:51.961Z,7.92
2019-06-20T09:40:27.418Z,9.05
2019-06-20T09:43:01.194Z,8.40
2019-06-20T09:45:36.751Z,9.65
2019-06-20T09:48:10.659Z,9.13
2019-06-20T09:50:44.552Z,9.50
2019-06-20T09:53:18.380Z,8.88
2019-06-20T09:55:53.636Z,8.75
2019-06-20T09:58:27.674Z,8.63
2019-06-20T10:01:01.488Z,8.73
2019-06-20T10:03:35.368Z,8.53
2019-06-20T10:06:14.035Z,8.60
2019-06-20T10:08:46.658Z,8.55
2019-06-20T10:11:20.750Z,8.45
2019-06-20T10:13:54.535Z,8.98
2019-06-20T10:16:28.387Z,8.83
2019-06-20T10:19:02.187Z,9.00
2019-06-20T10:21:36.113Z,8.33
2019-06-20T10:24:09.986Z,8.28
2019-06-20T10:26:45.082Z,8.73
2019-06-20T10:29:19.316Z,7.90
2019-06-20T10:31:53.236Z,8.25
2019-06-20T10:34:27.129Z,8.55
2019-06-20T10:37:01.027Z,8.80
2019-06-20T10:39:35.450Z,9.23
2019-06-20T10:42:09.354Z,7.47
2019-06-20T10:44:44.299Z,7.15
2019-06-20T10:47:31.695Z,6.58
2019-06-20T10:49:54.299Z,7.40
2019-06-20T10:52:28.138Z,7.40
2019-06-20T10:55:02.120Z,8.13
2019-06-20T10:57:36.113Z,8.18
2019-06-20T11:00:12.532Z,8.00
2019-06-20T11:02:47.045Z,8.20
2019-06-20T11:05:21.370Z,8.18
2019-06-20T11:07:55.349Z,8.78
2019-06-20T11:10:29.664Z,8.80
2019-06-20T11:13:03.640Z,8.88
2019-06-20T11:15:38.953Z,8.83
2019-06-20T11:18:13.275Z,9.13
2019-06-20T11:20:47.040Z,9.58
2019-06-20T11:23:21.015Z,9.85
2019-06-20T11:25:55.237Z,9.90
2019-06-20T11:28:29.147Z,9.73
2019-06-20T11:31:03.326Z,10.10
2019-06-20T11:33:39.019Z,9.10
2019-06-20T11:36:13.537Z,10.20
2019-06-20T11:38:49.104Z,10.60
2019-06-20T11:41:23.463Z,9.70
2019-06-20T11:43:57.510Z,10.68
2019-06-20T11:46:31.757Z,10.80
2019-06-20T11:49:06.184Z,11.22
2019-06-20T11:51:40.286Z,10.50
2019-06-20T11:54:14.248Z,9.50
2019-06-20T11:56:48.467Z,10.80
2019-06-20T11:59:22.974Z,11.60
2019-06-20T12:01:58.247Z,10.63
2019-06-20T12:04:32.589Z,10.65
2019-06-20T12:07:06.967Z,10.53
2019-06-20T12:09:41.163Z,10.58
2019-06-20T12:12:15.629Z,11.15
2019-06-20T12:14:51.275Z,9.63
2019-06-20T12:17:25.792Z,8.98
2019-06-20T12:19:59.986Z,8.33
2019-06-20T12:22:34.773Z,10.60
2019-06-20T12:25:10.818Z,7.67
2019-06-20T12:27:45.539Z,7.08
2019-06-20T12:30:21.195Z,8.25
2019-06-20T12:32:55.323Z,11.60
2019-06-20T12:35:29.262Z,16.52
2019-06-20T12:38:03.410Z,21.60
2019-06-20T12:40:39.090Z,10.58
2019-06-20T12:43:14.735Z,10.93
2019-06-20T12:45:49.538Z,7.40
2019-06-20T12:48:23.934Z,7.85
2019-06-20T12:50:58.086Z,7.58
2019-06-20T12:53:32.792Z,7.87
2019-06-20T12:56:07.012Z,8.90
2019-06-20T12:58:42.236Z,10.38
2019-06-20T13:01:16.425Z,13.45
2019-06-20T13:03:50.644Z,12.88
2019-06-20T13:06:24.996Z,11.83
2019-06-20T13:08:59.327Z,11.70
2019-06-20T13:11:33.606Z,11.55
2019-06-20T13:14:07.684Z,12.50
2019-06-20T13:16:42.795Z,12.78
2019-06-20T13:19:16.842Z,13.48
2019-06-20T13:24:24.465Z,15.45
2019-06-20T13:26:58.795Z,16.80
2019-06-20T13:29:33.166Z,15.98
2019-06-20T13:32:07.806Z,16.75
2019-06-20T13:34:42.915Z,15.10
2019-06-20T13:37:17.034Z,14.33
2019-06-20T13:39:51.177Z,14.33
2019-06-20T13:42:25.295Z,14.00
2019-06-20T13:44:59.571Z,13.88
2019-06-20T13:47:34.133Z,14.28
2019-06-20T13:50:10.034Z,15.20
2019-06-20T13:52:46.435Z,16.07
2019-06-20T13:55:20.093Z,15.43
2019-06-20T13:57:54.478Z,15.55
2019-06-20T14:00:29.626Z,17.12
2019-06-20T14:03:03.852Z,17.15
2019-06-20T14:05:39.653Z,16.52
2019-06-20T14:08:14.882Z,16.75
2019-06-20T14:10:49.840Z,16.55
2019-06-20T14:13:23.931Z,16.20
2019-06-20T14:15:58.176Z,18.67
2019-06-20T14:18:32.457Z,17.67
2019-06-20T14:21:06.570Z,19.07
2019-06-20T14:23:41.242Z,18.67
2019-06-20T14:26:20.136Z,15.60
2019-06-20T14:28:54.228Z,16.75
2019-06-20T14:31:28.373Z,18.60
2019-06-20T14:34:02.923Z,18.27
2019-06-20T14:36:36.944Z,17.90
2019-06-20T14:41:44.784Z,16.20
2019-06-20T14:44:18.916Z,18.30
2019-06-20T14:46:54.194Z,17.17
2019-06-20T14:49:28.365Z,16.15
2019-06-20T14:52:02.345Z,15.78
2019-06-20T14:57:11.088Z,17.30
2019-06-20T14:59:46.612Z,16.42
2019-06-20T15:02:20.830Z,16.82
2019-06-20T15:04:54.896Z,18.15
2019-06-20T15:07:29.057Z,18.12
2019-06-20T15:10:04.060Z,19.80
2019-06-20T15:12:38.330Z,18.05
2019-06-20T15:15:12.963Z,16.65
2019-06-20T15:17:49.870Z,14.40
2019-06-20T15:20:22.895Z,12.65
2019-06-20T15:25:31.141Z,11.73
2019-06-20T15:28:05.415Z,11.83
2019-06-20T15:30:39.534Z,10.60
2019-06-20T15:33:13.601Z,11.50
2019-06-20T15:35:49.217Z,11.40
2019-06-20T15:38:23.581Z,10.35
2019-06-20T15:43:32.090Z,10.10
2019-06-20T15:46:06.074Z,9.83
2019-06-20T15:51:14.125Z,9.78
2019-06-20T15:53:47.944Z,9.40
2019-06-20T15:56:22.142Z,9.10
2019-06-20T15:58:56.215Z,9.65
2019-06-20T16:04:03.715Z,9.58
2019-06-20T16:06:37.770Z,9.73
2019-06-20T16:09:11.841Z,10.23
2019-06-20T16:11:46.121Z,9.88
2019-06-20T16:14:20.308Z,10.08
2019-06-20T16:16:54.454Z,10.32
2019-06-20T16:19:28.334Z,10.82
2019-06-20T16:22:02.400Z,10.70
2019-06-20T16:24:36.762Z,9.90
2019-06-20T16:27:11.412Z,9.95
2019-06-20T16:29:45.265Z,10.13
2019-06-20T16:32:19.150Z,9.58
2019-06-20T16:37:26.655Z,9.75
2019-06-20T16:40:00.575Z,10.00
2019-06-20T16:45:12.449Z,9.93
2019-06-20T16:47:46.650Z,10.28
2019-06-20T16:50:20.908Z,10.95
2019-06-20T16:52:54.771Z,10.43
2019-06-20T16:55:28.860Z,10.53
2019-06-20T16:58:04.218Z,10.98
2019-06-20T17:00:39.335Z,11.05
2019-06-20T17:03:13.162Z,11.05
2019-06-20T17:05:47.313Z,10.82
2019-06-20T17:08:23.107Z,10.65
2019-06-20T17:10:59.536Z,10.23
2019-06-20T17:13:35.388Z,10.13
2019-06-20T17:16:09.235Z,10.68
2019-06-20T17:18:43.185Z,9.85
2019-06-20T17:23:50.383Z,9.95
2019-06-20T17:26:24.499Z,10.68
2019-06-20T17:28:58.414Z,10.65
2019-06-20T17:34:06.038Z,9.95
2019-06-20T17:36:42.190Z,10.68
2019-06-20T17:39:17.507Z,10.78
2019-06-20T17:41:55.485Z,10.95
2019-06-20T17:44:29.386Z,10.03
2019-06-20T17:47:04.577Z,10.43
2019-06-20T17:49:41.237Z,10.18
2019-06-20T17:52:15.395Z,11.10
2019-06-20T17:54:49.382Z,11.97
2019-06-20T17:59:57.334Z,9.68
2019-06-20T18:02:31.624Z,11.05
2019-06-20T18:05:08.314Z,10.90
2019-06-20T18:07:42.706Z,11.68
2019-06-20T18:10:17.581Z,12.25
2019-06-20T18:12:51.844Z,11.97
2019-06-20T18:15:27.999Z,13.15
2019-06-20T18:18:02.954Z,16.70
2019-06-20T18:20:36.771Z,18.05
2019-06-20T18:23:10.883Z,18.77
2019-06-20T18:25:45.072Z,17.62
2019-06-20T18:28:19.341Z,14.03
2019-06-20T18:30:53.531Z,15.23
2019-06-20T18:33:27.685Z,14.33
2019-06-20T18:36:01.823Z,13.00
2019-06-20T18:38:36.151Z,12.63
2019-06-20T18:41:10.410Z,13.30
2019-06-20T18:44:05.268Z,12.50
2019-06-20T18:46:39.652Z,9.78
2019-06-20T18:49:13.796Z,8.70
2019-06-20T18:51:47.874Z,8.10
2019-06-20T18:54:22.355Z,8.05
2019-06-20T18:56:56.492Z,7.58
2019-06-20T18:59:32.711Z,7.53
2019-06-20T19:02:08.043Z,8.40
2019-06-20T19:04:49.683Z,9.13
2019-06-20T19:07:18.804Z,9.80
2019-06-20T19:09:53.185Z,9.75
2019-06-20T19:12:27.518Z,9.78
2019-06-20T19:15:01.853Z,10.10
2019-06-20T19:17:36.177Z,9.53
2019-06-20T19:20:10.663Z,10.15
2019-06-20T19:22:44.832Z,9.40
2019-06-20T19:25:18.980Z,9.15
2019-06-20T19:27:53.484Z,9.83
2019-06-20T19:30:36.530Z,9.28
2019-06-20T19:33:10.686Z,9.03
2019-06-20T19:35:44.902Z,9.18
2019-06-20T19:38:19.252Z,8.75
2019-06-20T19:40:53.488Z,8.75
2019-06-20T19:43:27.516Z,9.33
2019-06-20T19:48:37.028Z,9.63
2019-06-20T19:51:11.194Z,9.58
2019-06-20T19:56:20.531Z,9.78
2019-06-20T19:58:55.156Z,9.68
2019-06-20T20:01:30.015Z,24.30
2019-06-20T20:04:04.587Z,11.73
2019-06-20T20:06:39.117Z,12.82
2019-06-20T20:09:13.964Z,11.43
2019-06-20T20:11:48.447Z,11.43
2019-06-20T20:14:22.876Z,12.43
2019-06-20T20:16:57.330Z,11.68
2019-06-20T20:19:31.432Z,12.13
2019-06-20T20:22:06.661Z,12.23
2019-06-20T20:24:41.280Z,11.43
2019-06-20T20:27:15.541Z,11.48
2019-06-20T20:29:49.606Z,11.63
2019-06-20T20:34:56.828Z,12.43
2019-06-20T20:40:06.350Z,14.28
2019-06-20T20:42:40.755Z,13.25
2019-06-20T20:45:15.197Z,14.35
2019-06-20T20:47:49.460Z,16.85
2019-06-20T20:50:23.538Z,13.98
2019-06-20T20:55:31.147Z,13.40
2019-06-20T20:58:26.056Z,13.58
2019-06-20T21:01:05.948Z,13.58
2019-06-20T21:03:40.157Z,13.90
2019-06-20T21:06:14.293Z,13.30
2019-06-20T21:11:22.016Z,12.98
2019-06-20T21:14:16.584Z,13.00
2019-06-20T21:19:23.932Z,13.00
2019-06-20T21:24:33.377Z,13.32
2019-06-20T21:27:07.756Z,13.08
2019-06-20T21:29:42.129Z,12.55
2019-06-20T21:32:16.312Z,13.22
2019-06-20T21:34:50.395Z,13.70
2019-06-20T21:39:57.536Z,11.68
2019-06-20T21:45:07.707Z,10.95
2019-06-20T21:47:41.568Z,12.18
2019-06-20T21:50:15.927Z,11.93
2019-06-20T21:52:49.955Z,11.45
2019-06-20T21:57:57.568Z,11.70
2019-06-20T22:00:41.436Z,11.53
2019-06-20T22:03:15.739Z,11.70
2019-06-20T22:05:49.963Z,12.05
2019-06-20T22:08:24.065Z,12.25
2019-06-20T22:10:58.030Z,11.93
2019-06-20T22:16:05.777Z,11.30
2019-06-20T22:18:40.024Z,10.20
2019-06-20T22:21:14.048Z,10.98
2019-06-20T22:26:22.232Z,9.98
2019-06-20T22:28:56.250Z,10.63
2019-06-20T22:34:03.992Z,10.50
2019-06-20T22:36:40.573Z,9.68
2019-06-20T22:39:13.696Z,10.53
2019-06-20T22:44:21.286Z,10.10
2019-06-20T22:49:28.819Z,11.00
2019-06-20T22:54:36.190Z,11.75
2019-06-20T22:57:10.396Z,11.12
2019-06-20T22:59:46.674Z,12.40
2019-06-20T23:02:20.736Z,12.40
2019-06-20T23:07:27.938Z,11.55
2019-06-20T23:10:10.329Z,12.13
2019-06-20T23:12:38.504Z,12.63
2019-06-20T23:15:12.774Z,14.28
2019-06-20T23:17:46.953Z,12.60
2019-06-20T23:20:21.130Z,13.00
2019-06-20T23:22:55.267Z,12.45
2019-06-20T23:25:29.134Z,12.20
2019-06-20T23:28:03.259Z,12.82
2019-06-20T23:33:10.656Z,13.25
2019-06-20T23:38:18.308Z,12.73
2019-06-20T23:43:25.593Z,13.50
2019-06-20T23:48:32.955Z,12.18
2019-06-20T23:51:07.033Z,13.95
2019-06-20T23:56:14.379Z,14.20
2019-06-20T23:58:48.320Z,12.75
